Time;durP1;ratioP1;P1;durP2;ratioP2;P2;SDS_P1;SDS_P2;PMS_P1;PMS_P2;Temp;Humidity;BMP_temperature;BMP_pressure;BME280_temperature;BME280_humidity;BME280_pressure;Samples;Min_cycle;Max_cycle;Signal;HPM_P1;HPM_P2
2021/03/29 00:00:39;;;;;;;17.65;11.25;;;;;;;6.53;75.20;100253.43;1695595;84;21194;-68
2021/03/29 00:03:07;;;;;;;15.32;10.38;;;;;;;6.46;75.26;100258.56;1693053;84;21203;-68
2021/03/29 00:05:34;;;;;;;13.98;9.53;;;;;;;6.43;75.34;100253.90;1688279;84;21222;-68
2021/03/29 00:08:14;;;;;;;16.52;11.28;;;;;;;6.49;75.25;100244.44;1719128;83;21150;-68
2021/03/29 00:10:44;;;;;;;14.78;10.80;;;;;;;6.45;75.23;100247.66;1702204;84;21194;-68
2021/03/29 00:13:13;;;;;;;14.25;10.08;;;;;;;6.37;75.44;100253.73;1676118;84;21133;-68
2021/03/29 00:15:45;;;;;;;16.37;10.60;;;;;;;6.36;75.38;100256.80;1640634;86;21168;-69
2021/03/29 00:18:14;;;;;;;16.15;10.43;;;;;;;6.43;75.34;100257.36;1732064;83;21606;-69
2021/03/29 00:20:48;;;;;;;14.33;9.00;;;;;;;6.35;75.51;100254.25;1738721;81;21111;-69
2021/03/29 00:23:16;;;;;;;12.93;9.05;;;;;;;6.27;75.66;100256.38;1730335;83;21139;-70
2021/03/29 00:25:45;;;;;;;13.00;8.75;;;;;;;6.33;75.34;100259.58;1730282;81;21130;-68
2021/03/29 00:28:14;;;;;;;13.62;9.13;;;;;;;6.36;75.18;100263.36;1730370;83;21301;-68
2021/03/29 00:30:46;;;;;;;14.25;8.65;;;;;;;6.27;75.26;100269.03;1729737;81;21628;-68
2021/03/29 00:33:15;;;;;;;11.93;8.35;;;;;;;6.18;75.57;100265.03;1732201;82;21224;-69
2021/03/29 00:35:47;;;;;;;13.83;8.30;;;;;;;6.21;75.45;100269.30;1730717;82;21098;-68
2021/03/29 00:38:15;;;;;;;14.15;9.20;;;;;;;6.16;75.56;100269.97;1732574;81;21318;-68
2021/03/29 00:40:52;;;;;;;11.78;8.45;;;;;;;6.09;75.62;100275.08;1711315;81;21203;-68
2021/03/29 00:43:25;;;;;;;13.00;8.73;;;;;;;6.11;75.71;100269.31;1691598;83;21138;-68
2021/03/29 00:45:55;;;;;;;15.55;10.00;;;;;;;6.15;75.61;100270.87;1723361;83;21170;-68
2021/03/29 00:48:26;;;;;;;14.25;9.03;;;;;;;6.04;75.75;100266.11;1706049;83;21172;-68
2021/03/29 00:51:03;;;;;;;14.45;9.50;;;;;;;6.06;75.79;100277.37;1708932;83;21256;-68
2021/03/29 00:53:33;;;;;;;12.73;8.85;;;;;;;6.11;75.59;100276.72;1740960;81;21606;-68
2021/03/29 00:56:02;;;;;;;14.60;9.28;;;;;;;6.03;75.79;100280.98;1760700;81;21119;-68
2021/03/29 00:58:30;;;;;;;13.15;8.80;;;;;;;5.99;75.93;100277.27;1675589;84;21353;-68
2021/03/29 01:01:07;;;;;;;14.78;9.33;;;;;;;6.04;75.78;100280.08;1717121;83;21746;-68
2021/03/29 01:03:38;;;;;;;13.83;9.18;;;;;;;6.05;75.63;100286.20;1716012;81;21296;-68
2021/03/29 01:06:15;;;;;;;12.75;8.38;;;;;;;5.93;75.97;100294.09;1724596;81;21286;-67
2021/03/29 01:08:50;;;;;;;14.83;9.05;;;;;;;5.93;76.03;100287.52;1758358;81;21151;-68
2021/03/29 01:11:23;;;;;;;12.25;8.45;;;;;;;5.98;75.90;100285.58;1762241;81;21155;-68
2021/03/29 01:14:09;;;;;;;18.00;8.98;;;;;;;5.91;76.14;100288.91;1819071;79;23377;-68
2021/03/29 01:16:48;;;;;;;13.72;8.38;;;;;;;5.83;76.31;100289.70;1790984;80;21154;-68
2021/03/29 01:19:38;;;;;;;13.83;8.95;;;;;;;5.97;76.02;100298.31;1790756;80;21103;-69
2021/03/29 01:22:07;;;;;;;14.07;9.05;;;;;;;5.90;76.13;100288.98;1728960;83;21329;-68
2021/03/29 01:24:54;;;;;;;13.03;8.80;;;;;;;5.81;76.31;100292.84;1693865;83;21186;-68
2021/03/29 01:27:29;;;;;;;15.55;9.93;;;;;;;5.90;76.22;100298.16;1728030;82;21204;-67
2021/03/29 01:29:56;;;;;;;13.65;8.90;;;;;;;5.90;76.12;100296.38;1698665;84;21144;-67
2021/03/29 01:32:24;;;;;;;13.60;8.70;;;;;;;5.83;76.23;100297.58;1700598;83;21609;-66
2021/03/29 01:34:51;;;;;;;16.57;9.13;;;;;;;5.85;76.35;100304.91;1729748;81;21127;-67
2021/03/29 01:37:18;;;;;;;16.15;10.88;;;;;;;5.92;76.13;100296.34;1726368;83;21625;-67
2021/03/29 01:39:46;;;;;;;16.15;8.90;;;;;;;5.84;76.14;100307.60;1727287;83;21143;-67
2021/03/29 01:42:14;;;;;;;17.02;10.60;;;;;;;5.76;76.46;100297.90;1705609;83;21322;-67
2021/03/29 01:44:42;;;;;;;20.60;11.95;;;;;;;5.84;76.27;100304.98;1717691;83;21564;-67
2021/03/29 01:47:09;;;;;;;19.23;11.83;;;;;;;5.87;76.05;100312.71;1687902;83;21179;-67
2021/03/29 01:49:37;;;;;;;16.95;10.45;;;;;;;5.73;76.44;100312.84;1696340;83;21210;-67
2021/03/29 01:52:05;;;;;;;15.70;9.53;;;;;;;5.69;76.71;100315.20;1727804;83;21176;-66
2021/03/29 01:54:34;;;;;;;17.25;10.58;;;;;;;5.73;76.74;100315.47;1727481;83;21164;-67
2021/03/29 01:57:08;;;;;;;15.65;10.00;;;;;;;5.66;76.89;100318.41;1707506;84;21143;-67
2021/03/29 01:59:38;;;;;;;;;;;;;;;5.61;77.10;100313.34;1702884;83;21644;-67
2021/03/29 02:02:06;;;;;;;15.83;10.03;;;;;;;5.76;76.78;100321.05;1722730;82;20191;-67
2021/03/29 02:04:34;;;;;;;16.62;10.28;;;;;;;5.73;76.77;100326.44;1723189;82;21555;-68
2021/03/29 02:07:06;;;;;;;16.57;10.20;;;;;;;5.63;77.20;100315.92;1718721;82;21182;-67
2021/03/29 02:09:35;;;;;;;17.45;9.88;;;;;;;5.64;77.21;100322.41;1718684;82;21195;-67
2021/03/29 02:12:06;;;;;;;15.78;10.53;;;;;;;5.76;76.84;100318.89;1717699;83;21187;-67
2021/03/29 02:14:34;;;;;;;16.90;9.70;;;;;;;5.73;76.91;100320.72;1713499;84;21160;-67
2021/03/29 02:17:03;;;;;;;15.78;10.20;;;;;;;5.70;77.08;100319.55;1713781;84;21167;-67
2021/03/29 02:19:31;;;;;;;16.35;10.48;;;;;;;5.78;76.90;100324.91;1713666;84;21599;-67
2021/03/29 02:21:58;;;;;;;16.35;10.40;;;;;;;5.73;76.85;100329.91;1713709;83;21223;-67
2021/03/29 02:24:26;;;;;;;16.52;9.73;;;;;;;5.64;77.18;100334.66;1722867;82;21128;-67
2021/03/29 02:26:53;;;;;;;16.35;10.50;;;;;;;5.67;77.26;100331.45;1714938;82;21135;-67
2021/03/29 02:29:26;;;;;;;17.30;9.98;;;;;;;5.74;77.00;100331.61;1729954;82;21163;-67
2021/03/29 02:31:51;;;;;;;13.28;8.35;;;;;;;5.65;77.35;100335.94;1694823;84;21190;-67
2021/03/29 02:34:18;;;;;;;13.83;9.20;;;;;;;5.63;77.43;100336.91;1748230;81;21177;-67
2021/03/29 02:36:46;;;;;;;14.13;9.90;;;;;;;5.73;77.40;100336.94;1745966;82;21155;-68
2021/03/29 02:39:14;;;;;;;15.78;9.20;;;;;;;5.63;77.50;100340.38;1747874;81;21124;-67
2021/03/29 02:41:42;;;;;;;15.20;8.78;;;;;;;5.55;77.78;100342.00;1745668;82;21619;-67
2021/03/29 02:44:11;;;;;;;15.58;9.40;;;;;;;5.62;77.76;100341.76;1762343;81;21747;-67
2021/03/29 02:46:38;;;;;;;15.75;9.75;;;;;;;5.60;77.79;100340.95;1748766;81;21168;-68
2021/03/29 02:49:06;;;;;;;18.15;10.48;;;;;;;5.51;77.96;100348.73;1773519;81;21131;-67
2021/03/29 02:51:34;;;;;;;15.40;9.73;;;;;;;5.55;78.00;100345.94;1776237;80;21140;-67
2021/03/29 02:54:07;;;;;;;21.52;12.05;;;;;;;5.65;77.75;100352.12;1770031;81;21190;-67
2021/03/29 02:56:38;;;;;;;15.65;10.00;;;;;;;5.55;77.71;100339.81;1745763;82;21175;-67
2021/03/29 02:59:17;;;;;;;13.22;8.85;;;;;;;5.52;77.94;100350.45;1747871;81;21153;-68
2021/03/29 03:01:44;;;;;;;14.55;8.83;;;;;;;5.61;77.79;100363.66;1747753;81;21790;-67
2021/03/29 03:04:14;;;;;;;14.80;8.65;;;;;;;5.56;77.95;100351.59;1771223;81;21552;-67
2021/03/29 03:06:41;;;;;;;14.28;8.48;;;;;;;5.47;78.33;100361.11;1756345;80;21306;-68
2021/03/29 03:09:12;;;;;;;14.33;8.75;;;;;;;5.44;78.43;100368.27;1748404;81;21187;-68
2021/03/29 03:11:40;;;;;;;13.53;8.60;;;;;;;5.44;78.55;100365.65;1745716;82;21774;-69
2021/03/29 03:14:08;;;;;;;13.88;8.53;;;;;;;5.26;79.08;100358.88;1769464;81;21552;-68
2021/03/29 03:16:38;;;;;;;15.38;9.73;;;;;;;5.24;79.17;100365.94;1772717;80;21124;-67
2021/03/29 03:19:08;;;;;;;15.32;9.83;;;;;;;5.30;79.10;100371.42;1713191;82;21309;-67
2021/03/29 03:21:37;;;;;;;13.80;8.68;;;;;;;5.21;79.26;100372.63;1747443;81;21172;-66
2021/03/29 03:24:07;;;;;;;14.03;8.28;;;;;;;5.21;79.37;100376.09;1768627;81;21192;-67
2021/03/29 03:26:34;;;;;;;13.85;8.58;;;;;;;5.35;78.96;100383.44;1776549;81;21540;-67
2021/03/29 03:29:01;;;;;;;17.32;9.03;;;;;;;5.31;78.94;100370.52;1779598;80;21183;-67
2021/03/29 03:31:28;;;;;;;14.60;8.88;;;;;;;5.20;79.17;100382.24;1782290;80;21217;-67
2021/03/29 03:33:56;;;;;;;15.08;9.30;;;;;;;5.30;79.05;100388.00;1705195;83;21277;-67
2021/03/29 03:36:25;;;;;;;15.55;9.73;;;;;;;5.30;78.92;100397.19;1697177;84;21200;-67
2021/03/29 03:38:53;;;;;;;14.25;9.00;;;;;;;5.22;79.07;100393.55;1705958;84;21334;-68
2021/03/29 03:41:30;;;;;;;17.50;10.82;;;;;;;5.25;79.01;100397.34;1692082;84;21176;-68
2021/03/29 03:43:59;;;;;;;20.27;11.40;;;;;;;5.28;78.96;100405.59;1748110;81;21533;-67
2021/03/29 03:46:40;;;;;;;14.83;9.18;;;;;;;5.20;79.10;100392.73;1747572;82;21609;-67
2021/03/29 03:49:18;;;;;;;16.60;9.35;;;;;;;5.22;79.23;100400.57;1765062;81;21092;-67
2021/03/29 03:51:45;;;;;;;17.82;12.82;;;;;;;5.32;78.84;100392.75;1768563;81;21571;-66
2021/03/29 03:54:12;;;;;;;20.12;12.07;;;;;;;5.28;78.85;100397.72;1777794;80;21156;-68
2021/03/29 03:56:40;;;;;;;15.88;9.88;;;;;;;5.18;79.09;100398.95;1759829;81;21115;-67
2021/03/29 03:59:09;;;;;;;17.00;10.05;;;;;;;5.25;78.89;100397.81;1768183;80;21136;-67
2021/03/29 04:02:02;;;;;;;16.02;9.93;;;;;;;5.27;78.73;100396.00;1702659;84;21606;-67
2021/03/29 04:04:32;;;;;;;18.23;9.65;;;;;;;5.19;78.96;100400.66;1778207;81;21318;-67
2021/03/29 04:07:00;;;;;;;18.90;10.20;;;;;;;5.19;78.97;100408.53;1778249;81;21622;-67
2021/03/29 04:12:18;;;;;;;17.23;9.83;;;;;;;5.19;78.80;100412.47;1750501;82;21216;-67
2021/03/29 04:14:46;;;;;;;18.15;9.55;;;;;;;5.15;78.99;100420.90;1751585;82;21664;-66
2021/03/29 04:17:13;;;;;;;18.17;10.58;;;;;;;5.23;78.71;100419.30;1751649;82;21180;-66
2021/03/29 04:19:40;;;;;;;20.82;11.90;;;;;;;5.22;78.68;100421.55;1751780;82;21223;-66
2021/03/29 04:22:08;;;;;;;20.17;11.75;;;;;;;5.19;78.75;100421.64;1751767;82;21703;-66
2021/03/29 04:24:35;;;;;;;20.02;11.00;;;;;;;5.29;78.49;100416.45;1676376;82;21163;-66
2021/03/29 04:27:05;;;;;;;16.65;10.30;;;;;;;5.33;78.32;100414.14;1725294;81;21167;-67
2021/03/29 04:29:32;;;;;;;16.27;10.03;;;;;;;5.28;78.40;100427.88;1722901;82;21179;-67
2021/03/29 04:32:00;;;;;;;20.08;10.93;;;;;;;5.33;78.37;100427.69;1721675;83;21343;-67
2021/03/29 04:34:28;;;;;;;20.97;11.95;;;;;;;5.38;78.15;100429.67;1721734;83;21188;-66
2021/03/29 04:36:55;;;;;;;16.87;10.20;;;;;;;5.30;78.16;100437.00;1721518;83;21146;-67
2021/03/29 04:39:22;;;;;;;18.25;10.85;;;;;;;5.22;78.44;100432.88;1721766;83;21190;-66
2021/03/29 04:41:50;;;;;;;19.62;11.85;;;;;;;5.32;78.32;100438.65;1721779;83;21182;-67
2021/03/29 04:44:17;;;;;;;17.65;11.00;;;;;;;5.38;78.03;100439.73;1721384;83;21198;-66
2021/03/29 04:46:46;;;;;;;18.40;11.33;;;;;;;5.27;78.20;100444.52;1721338;83;21205;-66
2021/03/29 04:49:14;;;;;;;16.95;11.05;;;;;;;5.25;78.34;100437.16;1721524;83;21163;-66
2021/03/29 04:51:41;;;;;;;18.87;10.70;;;;;;;5.31;78.19;100433.00;1721516;83;21667;-66
2021/03/29 04:54:08;;;;;;;19.23;10.75;;;;;;;5.29;78.23;100440.05;1721589;83;21123;-66
2021/03/29 04:56:35;;;;;;;20.32;11.20;;;;;;;5.25;78.41;100445.02;1722559;82;21130;-68
2021/03/29 04:59:05;;;;;;;23.87;12.65;;;;;;;5.33;78.28;100439.05;1727106;82;21182;-68
2021/03/29 05:01:33;;;;;;;20.43;12.10;;;;;;;5.43;77.91;100443.94;1729255;82;21135;-68
2021/03/29 05:04:03;;;;;;;23.12;12.50;;;;;;;5.42;78.00;100456.19;1729811;82;21194;-68
2021/03/29 05:06:32;;;;;;;21.10;12.80;;;;;;;5.43;77.80;100443.94;1734028;82;21127;-68
2021/03/29 05:09:00;;;;;;;23.77;14.23;;;;;;;5.50;77.42;100451.95;1723899;82;21552;-68
2021/03/29 05:11:34;;;;;;;23.77;13.62;;;;;;;5.54;77.26;100453.11;1721639;83;21182;-68
2021/03/29 05:13:58;;;;;;;23.20;13.00;;;;;;;5.48;77.28;100455.95;1723421;82;21757;-68
2021/03/29 05:16:25;;;;;;;22.93;12.98;;;;;;;5.45;77.32;100463.08;1721730;83;21194;-68
2021/03/29 05:18:52;;;;;;;23.38;14.03;;;;;;;5.51;77.03;100462.42;1723098;83;21174;-68
2021/03/29 05:21:21;;;;;;;23.02;12.75;;;;;;;5.39;77.29;100461.09;1690531;84;21683;-68
2021/03/29 05:23:49;;;;;;;23.25;14.07;;;;;;;5.32;77.60;100467.94;1723855;82;21179;-68
2021/03/29 05:26:17;;;;;;;23.50;14.63;;;;;;;5.43;77.25;100469.70;1723286;82;21117;-68
2021/03/29 05:28:46;;;;;;;22.32;12.78;;;;;;;5.51;77.14;100469.42;1730674;82;21119;-68
2021/03/29 05:31:14;;;;;;;20.40;12.53;;;;;;;5.43;77.29;100472.33;1727716;82;21202;-68
2021/03/29 05:33:41;;;;;;;20.00;11.95;;;;;;;5.36;77.25;100470.87;1713975;82;21723;-68
2021/03/29 05:36:12;;;;;;;21.10;13.30;;;;;;;5.51;76.92;100483.84;1751091;82;21186;-68
2021/03/29 05:38:42;;;;;;;19.42;12.58;;;;;;;5.39;77.11;100476.83;1735621;82;21179;-68
2021/03/29 05:41:12;;;;;;;22.07;13.40;;;;;;;5.27;77.65;100480.36;1738636;82;21182;-68
2021/03/29 05:43:42;;;;;;;22.35;13.40;;;;;;;5.31;77.50;100484.14;1751203;82;21178;-68
2021/03/29 05:46:10;;;;;;;20.75;13.10;;;;;;;5.36;77.48;100497.94;1745743;82;21146;-68
2021/03/29 05:48:37;;;;;;;22.17;13.50;;;;;;;5.32;77.68;100492.42;1730314;82;21182;-68
2021/03/29 05:51:07;;;;;;;21.45;12.18;;;;;;;5.37;77.63;100500.97;1751200;82;21147;-68
2021/03/29 05:53:38;;;;;;;21.35;13.40;;;;;;;5.51;77.32;100499.15;1751233;82;21182;-68
2021/03/29 05:56:07;;;;;;;20.55;12.60;;;;;;;5.48;77.34;100503.18;1751253;81;21111;-68
2021/03/29 05:58:42;;;;;;;20.65;12.70;;;;;;;5.39;77.60;100500.44;1751019;82;21151;-68
2021/03/29 06:01:08;;;;;;;19.00;12.35;;;;;;;5.44;77.43;100508.15;1737964;82;22171;-68
2021/03/29 06:03:39;;;;;;;21.62;13.18;;;;;;;5.41;77.53;100505.19;1731263;82;21103;-68
2021/03/29 06:06:18;;;;;;;25.23;14.00;;;;;;;5.33;77.82;100511.62;1731599;82;21178;-68
2021/03/29 06:08:50;;;;;;;26.90;13.83;;;;;;;5.36;77.90;100511.53;1721522;83;21159;-68
2021/03/29 06:11:23;;;;;;;21.80;13.98;;;;;;;5.44;77.61;100513.86;1723114;82;21119;-67
2021/03/29 06:14:10;;;;;;;27.27;14.45;;;;;;;5.41;77.55;100514.36;1732024;82;21159;-67
2021/03/29 06:17:06;;;;;;;23.98;14.15;;;;;;;5.38;77.73;100521.48;1723060;83;22098;-68
2021/03/29 06:19:50;;;;;;;23.42;13.78;;;;;;;5.50;77.35;100522.80;1705599;83;21179;-68
2021/03/29 06:22:30;;;;;;;22.98;13.05;;;;;;;5.44;77.48;100528.30;1714598;84;21179;-68
2021/03/29 06:25:18;;;;;;;25.68;15.58;;;;;;;5.37;77.60;100533.76;1714238;83;21602;-68
2021/03/29 06:27:57;;;;;;;22.87;13.72;;;;;;;5.46;77.44;100529.08;1743038;82;21122;-68
2021/03/29 06:30:33;;;;;;;26.25;14.68;;;;;;;5.47;77.43;100530.32;1742308;82;21169;-67
2021/03/29 06:35:55;;;;;;;24.95;14.68;;;;;;;5.55;77.56;100539.22;1779491;79;22723;-68
2021/03/29 06:38:32;;;;;;;25.05;14.38;;;;;;;5.59;77.27;100544.78;1728830;82;21595;-68
2021/03/29 06:41:00;;;;;;;25.68;14.38;;;;;;;5.57;77.33;100553.16;1725477;82;21255;-66
2021/03/29 06:43:34;;;;;;;25.32;15.03;;;;;;;5.55;77.26;100551.03;1725124;82;21269;-68
2021/03/29 06:46:05;;;;;;;;;;;;;;;5.65;77.04;100552.44;1725788;83;21155;-69
2021/03/29 06:48:37;;;;;;;25.88;15.20;;;;;;;5.63;77.14;100567.37;1722841;83;20176;-68
2021/03/29 06:51:25;;;;;;;25.72;14.73;;;;;;;5.55;77.23;100561.52;1724187;82;21195;-69
2021/03/29 06:54:04;;;;;;;25.43;16.12;;;;;;;5.60;77.21;100566.18;1729337;82;21151;-67
2021/03/29 06:56:39;;;;;;;26.23;15.83;;;;;;;5.81;76.54;100564.98;1741458;82;21199;-67
2021/03/29 06:59:24;;;;;;;27.37;17.07;;;;;;;5.81;76.32;100564.52;1710200;83;21135;-68
2021/03/29 07:01:54;;;;;;;25.77;15.63;;;;;;;5.79;76.25;100575.98;1701791;84;21138;-68
2021/03/29 07:04:26;;;;;;;23.92;15.98;;;;;;;5.92;75.89;100573.31;1708274;84;21631;-68
2021/03/29 07:06:57;;;;;;;32.40;19.57;;;;;;;5.96;75.72;100573.59;1710043;83;21607;-68
2021/03/29 07:09:25;;;;;;;34.88;19.57;;;;;;;5.83;75.84;100571.89;1702351;83;21307;-67
2021/03/29 07:11:52;;;;;;;33.23;19.20;;;;;;;5.37;76.05;100502.28;1705202;84;21329;-67
2021/03/29 07:14:20;;;;;;;24.67;15.38;;;;;;;5.91;75.92;100571.59;1707489;83;21186;-67
2021/03/29 07:16:49;;;;;;;26.68;15.10;;;;;;;5.90;76.06;100581.69;1705015;84;21640;-68
2021/03/29 07:19:17;;;;;;;24.00;14.25;;;;;;;5.77;76.32;100568.17;1704675;84;21164;-68
2021/03/29 07:21:45;;;;;;;24.82;15.32;;;;;;;5.87;76.42;100583.10;1717914;83;21659;-68
2021/03/29 07:24:14;;;;;;;23.55;14.53;;;;;;;6.03;76.09;100582.95;1694396;83;21649;-68
2021/03/29 07:26:48;;;;;;;26.07;14.63;;;;;;;6.03;76.02;100578.17;1714137;83;21137;-67
2021/03/29 07:29:28;;;;;;;27.42;15.98;;;;;;;6.00;75.97;100584.87;1712274;83;21172;-68
2021/03/29 07:31:59;;;;;;;30.70;16.80;;;;;;;6.01;76.03;100574.30;1720459;83;21627;-68
2021/03/29 07:34:48;;;;;;;28.17;17.92;;;;;;;6.14;75.44;100579.06;1715931;83;21312;-68
2021/03/29 07:37:47;;;;;;;27.52;17.67;;;;;;;6.17;75.46;100592.09;1701336;84;21193;-67
2021/03/29 07:40:24;;;;;;;29.35;18.02;;;;;;;6.18;75.33;100594.66;1680240;85;21177;-68
2021/03/29 07:42:54;;;;;;;28.45;18.17;;;;;;;6.26;75.19;100598.30;1708532;84;21192;-68
2021/03/29 07:45:29;;;;;;;29.87;17.10;;;;;;;6.37;74.49;100618.44;1709999;84;21588;-68
2021/03/29 07:47:59;;;;;;;34.25;18.15;;;;;;;6.22;74.74;100608.53;1689614;84;21190;-68
2021/03/29 07:50:34;;;;;;;28.73;18.00;;;;;;;6.22;74.92;100609.84;1706790;83;21199;-68
2021/03/29 07:53:05;;;;;;;31.60;19.00;;;;;;;6.36;74.80;100610.16;1705936;83;21175;-68
2021/03/29 07:55:38;;;;;;;33.83;19.57;;;;;;;6.52;74.41;100619.62;1705572;84;21643;-68
2021/03/29 07:58:13;;;;;;;25.65;15.78;;;;;;;6.50;74.23;100612.72;1690026;85;21284;-68
2021/03/29 08:00:44;;;;;;;26.35;16.40;;;;;;;6.44;74.41;100625.62;1704111;84;21152;-68
2021/03/29 08:03:18;;;;;;;27.27;16.10;;;;;;;6.46;74.50;100628.18;1710115;83;21329;-68
2021/03/29 08:05:53;;;;;;;30.90;17.42;;;;;;;6.51;74.33;100630.16;1709847;84;21270;-68
2021/03/29 08:08:32;;;;;;;30.10;16.95;;;;;;;6.45;74.50;100633.06;1709998;83;21715;-67
2021/03/29 08:11:14;;;;;;;27.50;17.10;;;;;;;6.39;74.62;100636.77;1705626;84;21179;-68
2021/03/29 08:13:52;;;;;;;30.00;16.10;;;;;;;6.50;74.37;100641.63;1681837;85;21616;-67
2021/03/29 08:16:29;;;;;;;32.98;18.77;;;;;;;6.59;74.19;100637.31;1679545;85;21283;-68
2021/03/29 08:19:24;;;;;;;27.20;17.98;;;;;;;6.56;74.18;100644.02;1708136;84;21160;-68
2021/03/29 08:22:09;;;;;;;32.85;17.35;;;;;;;6.55;74.10;100643.61;1702027;84;21158;-68
2021/03/29 08:24:44;;;;;;;30.02;17.20;;;;;;;6.67;73.80;100645.73;1709027;82;21770;-67
2021/03/29 08:27:20;;;;;;;31.17;18.35;;;;;;;6.69;73.68;100646.54;1708446;83;21296;-67
2021/03/29 08:29:50;;;;;;;27.37;16.17;;;;;;;6.66;73.78;100650.62;1703700;84;21145;-67
2021/03/29 08:32:31;;;;;;;31.77;19.07;;;;;;;6.67;73.79;100646.20;1710435;82;21136;-67
2021/03/29 08:35:11;;;;;;;36.25;19.48;;;;;;;6.81;73.43;100650.44;1712771;83;21151;-67
2021/03/29 08:37:49;;;;;;;32.60;19.25;;;;;;;6.94;73.10;100654.74;1722103;82;21203;-65
2021/03/29 08:40:26;;;;;;;32.78;19.35;;;;;;;7.00;73.14;100645.29;1727907;82;21170;-67
2021/03/29 08:43:00;;;;;;;30.62;17.02;;;;;;;7.04;72.89;100651.28;1734708;82;21106;-66
2021/03/29 08:45:28;;;;;;;29.50;17.05;;;;;;;7.07;72.67;100647.20;1718460;82;21213;-67
2021/03/29 08:47:58;;;;;;;32.03;18.62;;;;;;;7.13;72.41;100652.21;1722938;83;21143;-67
2021/03/29 08:50:35;;;;;;;30.10;18.67;;;;;;;7.15;72.31;100649.55;1723264;82;21550;-66
2021/03/29 08:53:07;;;;;;;27.93;17.48;;;;;;;7.16;72.09;100653.42;1722218;82;21203;-67
2021/03/29 08:55:37;;;;;;;30.07;17.90;;;;;;;7.10;72.03;100651.48;1727403;82;21248;-67
2021/03/29 08:58:05;;;;;;;35.10;18.70;;;;;;;7.24;72.13;100652.22;1719245;83;21592;-67
2021/03/29 09:00:36;;;;;;;30.62;18.17;;;;;;;7.34;71.57;100661.00;1723514;82;21575;-66
2021/03/29 09:03:04;;;;;;;32.88;18.70;;;;;;;7.29;71.79;100666.91;1722149;82;21151;-67
2021/03/29 09:05:34;;;;;;;29.87;17.75;;;;;;;7.26;71.78;100658.28;1723090;83;21151;-68
2021/03/29 09:08:10;;;;;;;32.45;19.20;;;;;;;7.25;71.72;100665.34;1723504;82;21610;-67
2021/03/29 09:10:40;;;;;;;33.58;20.52;;;;;;;7.44;71.41;100665.86;1728906;82;21123;-67
2021/03/29 09:13:12;;;;;;;31.17;19.95;;;;;;;7.55;70.95;100663.63;1681529;82;21191;-68
2021/03/29 09:15:43;;;;;;;31.80;19.17;;;;;;;7.58;70.47;100671.37;1728024;82;21171;-67
2021/03/29 09:18:13;;;;;;;36.48;20.40;;;;;;;7.56;70.05;100671.92;1721347;82;21151;-67
2021/03/29 09:20:43;;;;;;;31.57;19.73;;;;;;;7.56;70.03;100675.88;1728095;82;21180;-68
2021/03/29 09:23:13;;;;;;;32.93;19.85;;;;;;;7.73;69.53;100675.61;1724216;82;21190;-67
2021/03/29 09:25:44;;;;;;;36.95;22.67;;;;;;;7.74;69.40;100674.22;1722847;82;21623;-67
2021/03/29 09:28:31;;;;;;;37.85;22.30;;;;;;;7.78;69.47;100681.53;1723205;83;21127;-67
2021/03/29 09:31:09;;;;;;;34.13;19.80;;;;;;;7.86;69.12;100678.08;1725704;82;21277;-66
2021/03/29 09:33:41;;;;;;;30.80;19.73;;;;;;;7.98;69.12;100684.57;1723299;83;21272;-67
2021/03/29 09:36:19;;;;;;;35.03;21.10;;;;;;;8.21;68.47;100680.93;1717020;81;22416;-67
2021/03/29 09:38:57;;;;;;;33.60;20.25;;;;;;;8.25;68.17;100681.17;1740451;81;21185;-67
2021/03/29 09:41:30;;;;;;;39.27;22.13;;;;;;;8.20;67.97;100676.58;1727725;81;21166;-66
2021/03/29 09:43:58;;;;;;;86.25;39.85;;;;;;;8.17;68.07;100679.34;1708318;84;21183;-65
2021/03/29 09:46:29;;;;;;;75.85;39.70;;;;;;;8.17;67.95;100681.97;1715432;82;21290;-66
2021/03/29 09:49:15;;;;;;;116.65;47.25;;;;;;;8.26;67.94;100684.20;1707255;84;21644;-66
2021/03/29 09:51:46;;;;;;;53.68;27.35;;;;;;;8.46;67.63;100689.89;1711085;82;21179;-67
2021/03/29 09:54:28;;;;;;;50.25;25.30;;;;;;;8.49;67.11;100688.45;1710757;82;21372;-68
2021/03/29 09:56:57;;;;;;;44.08;23.77;;;;;;;8.53;67.20;100686.53;1709916;82;21608;-67
2021/03/29 09:59:28;;;;;;;58.15;28.80;;;;;;;8.62;66.91;100690.04;1709074;82;21157;-67
2021/03/29 10:01:57;;;;;;;52.20;26.17;;;;;;;8.66;66.52;100693.39;1712885;84;21171;-65
2021/03/29 10:04:25;;;;;;;39.18;23.98;;;;;;;8.79;66.29;100701.09;1716369;82;21191;-66
2021/03/29 10:06:57;;;;;;;65.70;32.28;;;;;;;8.84;65.87;100701.73;1712498;84;21587;-66
2021/03/29 10:09:32;;;;;;;83.12;37.78;;;;;;;8.86;65.82;100705.61;1713949;82;21140;-66
2021/03/29 10:12:01;;;;;;;77.65;35.40;;;;;;;8.92;66.10;100704.00;1712861;84;21592;-66
2021/03/29 10:14:35;;;;;;;75.45;37.28;;;;;;;9.01;65.51;100706.22;1712345;82;22155;-65
2021/03/29 10:17:20;;;;;;;85.20;38.35;;;;;;;9.01;65.20;100706.22;1715520;82;21155;-65
2021/03/29 10:19:48;;;;;;;39.53;23.35;;;;;;;9.10;65.37;100708.00;1706288;82;21194;-66
2021/03/29 10:22:19;;;;;;;42.45;25.15;;;;;;;9.37;64.02;100703.13;1667665;84;21193;-66
2021/03/29 10:27:57;;;;;;;38.65;21.20;;;;;;;9.54;63.14;100712.86;1777181;79;22927;-65
2021/03/29 10:30:30;;;;;;;37.25;23.77;;;;;;;9.46;63.52;100720.30;1734966;82;21123;-65
2021/03/29 10:33:00;;;;;;;41.60;23.32;;;;;;;9.51;63.31;100724.88;1771157;80;21107;-66
2021/03/29 10:35:29;;;;;;;31.82;19.98;;;;;;;9.63;63.04;100718.99;1734958;82;21155;-65
2021/03/29 10:38:03;;;;;;;36.70;23.40;;;;;;;9.72;62.40;100714.16;1762828;80;21298;-65
2021/03/29 10:40:32;;;;;;;33.53;20.75;;;;;;;9.83;62.58;100713.14;1728508;81;21167;-66
2021/03/29 10:44:47;;;;;;;37.38;22.50;;;;;;;10.21;61.02;100717.36;1816793;77;22186;-66
2021/03/29 10:47:15;;;;;;;47.23;26.52;;;;;;;10.10;61.25;100716.59;1802617;79;21195;-65
2021/03/29 10:49:42;;;;;;;43.52;24.18;;;;;;;9.98;60.83;100712.34;1789433;78;21147;-67
2021/03/29 10:52:10;;;;;;;33.63;21.55;;;;;;;9.90;61.58;100717.63;1789633;78;21274;-66
2021/03/29 10:54:38;;;;;;;36.58;21.15;;;;;;;9.98;62.14;100720.27;1722146;81;21627;-67
2021/03/29 10:57:06;;;;;;;32.70;20.75;;;;;;;10.05;62.15;100718.63;1713573;82;21187;-67
2021/03/29 10:59:33;;;;;;;33.83;21.42;;;;;;;10.06;61.96;100719.02;1722214;82;21604;-67
2021/03/29 11:02:01;;;;;;;34.10;21.27;;;;;;;10.04;61.81;100729.68;1703005;83;21174;-67
2021/03/29 11:04:28;;;;;;;33.88;19.73;;;;;;;9.92;61.58;100728.98;1701593;83;21716;-67
2021/03/29 11:06:55;;;;;;;32.88;21.85;;;;;;;9.75;62.09;100724.11;1723001;83;21212;-68
2021/03/29 11:09:23;;;;;;;33.60;20.90;;;;;;;9.69;62.38;100728.37;1717714;83;21313;-67
2021/03/29 11:11:52;;;;;;;32.08;21.45;;;;;;;9.79;61.84;100731.41;1697619;83;21163;-67
2021/03/29 11:14:21;;;;;;;32.03;21.30;;;;;;;9.89;61.32;100727.36;1720281;83;21154;-67
2021/03/29 11:16:52;;;;;;;35.33;22.35;;;;;;;9.97;61.82;100723.00;1722800;83;21164;-68
2021/03/29 11:19:21;;;;;;;35.83;22.65;;;;;;;10.07;61.17;100728.66;1700696;84;21139;-68
2021/03/29 11:21:49;;;;;;;30.70;21.27;;;;;;;10.06;60.81;100731.75;1705733;83;21253;-68
2021/03/29 11:24:19;;;;;;;32.60;21.42;;;;;;;9.99;61.06;100734.35;1700806;84;21588;-66
2021/03/29 11:26:47;;;;;;;31.60;20.52;;;;;;;10.00;61.52;100725.02;1700834;84;21611;-67
2021/03/29 11:29:14;;;;;;;36.48;21.33;;;;;;;10.10;61.37;100720.56;1700890;83;21288;-67
2021/03/29 11:31:42;;;;;;;46.90;25.10;;;;;;;10.14;61.24;100732.22;1700854;84;21197;-67
2021/03/29 11:34:11;;;;;;;41.00;24.32;;;;;;;10.15;61.03;100723.36;1705841;83;21337;-67
2021/03/29 11:36:40;;;;;;;33.55;21.65;;;;;;;10.19;61.03;100713.45;1707453;83;21308;-67
2021/03/29 11:39:11;;;;;;;34.80;23.30;;;;;;;10.26;61.11;100724.09;1715064;83;21329;-67
2021/03/29 11:41:39;;;;;;;40.20;25.72;;;;;;;10.30;60.96;100728.28;1701553;82;21192;-67
2021/03/29 11:44:07;;;;;;;33.30;21.68;;;;;;;10.27;60.99;100717.88;1708826;83;21238;-67
2021/03/29 11:46:34;;;;;;;43.10;26.97;;;;;;;10.32;60.94;100721.13;1689293;83;21167;-66
2021/03/29 11:49:03;;;;;;;41.53;25.88;;;;;;;10.36;60.71;100722.30;1680597;84;21584;-67